createdAt,value
2018-09-14T00:00:45.674Z,17.00
2018-09-14T00:03:13.903Z,17.06
2018-09-14T00:05:42.122Z,17.14
2018-09-14T00:08:10.334Z,16.70
2018-09-14T00:10:38.566Z,16.93
2018-09-14T00:13:06.938Z,16.99
2018-09-14T00:15:35.169Z,16.78
2018-09-14T00:18:03.385Z,16.54
2018-09-14T00:20:31.610Z,16.34
2018-09-14T00:22:59.834Z,16.43
2018-09-14T00:25:28.051Z,16.26
2018-09-14T00:27:56.260Z,16.61
2018-09-14T00:30:24.506Z,16.72
2018-09-14T00:32:52.713Z,16.76
2018-09-14T00:35:20.942Z,16.90
2018-09-14T00:37:49.166Z,16.42
2018-09-14T00:40:17.369Z,16.29
2018-09-14T00:42:45.584Z,16.57
2018-09-14T00:45:13.797Z,16.46
2018-09-14T00:47:42.086Z,16.51
2018-09-14T00:50:10.312Z,16.46
2018-09-14T00:52:38.545Z,16.46
2018-09-14T00:55:06.821Z,16.14
2018-09-14T00:57:35.042Z,16.19
2018-09-14T01:00:03.413Z,16.04
2018-09-14T01:02:31.630Z,16.15
2018-09-14T01:04:59.878Z,16.31
2018-09-14T01:07:28.102Z,16.24
2018-09-14T01:09:56.313Z,16.56
2018-09-14T01:12:24.531Z,16.37
2018-09-14T01:14:52.756Z,16.30
2018-09-14T01:17:21.042Z,16.31
2018-09-14T01:19:49.211Z,16.38
2018-09-14T01:22:17.424Z,16.20
2018-09-14T01:24:45.677Z,15.95
2018-09-14T01:27:13.921Z,15.77
2018-09-14T01:29:42.157Z,15.86
2018-09-14T01:32:10.365Z,15.83
2018-09-14T01:34:39.647Z,15.45
2018-09-14T01:37:07.889Z,15.63
2018-09-14T01:39:36.474Z,15.88
2018-09-14T01:42:04.705Z,15.89
2018-09-14T01:44:32.916Z,15.60
2018-09-14T01:47:01.166Z,15.70
2018-09-14T01:49:29.393Z,15.79
2018-09-14T01:51:57.635Z,15.86
2018-09-14T01:54:25.906Z,15.59
2018-09-14T01:56:54.114Z,15.85
2018-09-14T01:59:22.338Z,15.63
2018-09-14T02:01:50.597Z,15.60
2018-09-14T02:04:18.829Z,15.40
2018-09-14T02:06:47.094Z,15.38
2018-09-14T02:09:15.316Z,15.26
2018-09-14T02:11:43.528Z,15.11
2018-09-14T02:14:11.745Z,15.22
2018-09-14T02:16:39.968Z,15.21
2018-09-14T02:19:08.192Z,15.16
2018-09-14T02:21:36.421Z,14.87
2018-09-14T02:24:04.667Z,14.89
2018-09-14T02:26:32.889Z,14.84
2018-09-14T02:29:01.103Z,15.16
2018-09-14T02:31:29.342Z,15.14
2018-09-14T02:33:57.546Z,15.53
2018-09-14T02:36:25.792Z,15.25
2018-09-14T02:38:54.018Z,15.31
2018-09-14T02:41:22.225Z,15.31
2018-09-14T02:43:50.450Z,15.42
2018-09-14T02:46:18.689Z,14.98
2018-09-14T02:48:46.906Z,14.96
2018-09-14T02:51:15.135Z,14.92
2018-09-14T02:53:43.373Z,14.85
2018-09-14T02:56:11.603Z,14.69
2018-09-14T02:58:39.806Z,15.08
2018-09-14T03:01:08.053Z,15.17
2018-09-14T03:03:36.270Z,15.15
2018-09-14T03:06:04.517Z,14.77
2018-09-14T03:08:32.752Z,14.65
2018-09-14T03:11:00.953Z,14.61
2018-09-14T03:13:29.186Z,14.85
2018-09-14T03:15:57.409Z,15.09
2018-09-14T03:18:25.649Z,15.23
2018-09-14T03:20:53.858Z,15.24
2018-09-14T03:23:22.097Z,15.25
2018-09-14T03:25:50.310Z,14.99
2018-09-14T03:28:18.550Z,15.04
2018-09-14T03:30:46.778Z,15.02
2018-09-14T03:33:15.005Z,15.02
2018-09-14T03:35:43.230Z,15.21
2018-09-14T03:38:11.467Z,15.12
2018-09-14T03:40:39.686Z,15.33
2018-09-14T03:43:07.934Z,15.38
2018-09-14T03:45:36.154Z,15.21
2018-09-14T03:48:04.394Z,15.31
2018-09-14T03:50:32.618Z,15.06
2018-09-14T03:53:00.844Z,14.89
2018-09-14T03:55:29.065Z,15.03
2018-09-14T03:57:57.297Z,15.05
2018-09-14T04:00:25.513Z,14.91
2018-09-14T04:02:53.738Z,14.59
2018-09-14T04:05:21.969Z,14.70
2018-09-14T04:07:50.208Z,14.59
2018-09-14T04:10:18.429Z,14.45
2018-09-14T04:12:46.663Z,14.49
2018-09-14T04:15:14.903Z,14.36
2018-09-14T04:17:43.140Z,14.46
2018-09-14T04:20:11.366Z,14.51
2018-09-14T04:22:39.594Z,14.51
2018-09-14T04:25:07.820Z,14.28
2018-09-14T04:27:36.037Z,14.10
2018-09-14T04:30:04.416Z,13.99
2018-09-14T04:32:32.654Z,14.22
2018-09-14T04:35:00.881Z,14.41
2018-09-14T04:37:29.095Z,14.17
2018-09-14T04:39:57.335Z,14.22
2018-09-14T04:42:25.571Z,14.24
2018-09-14T04:44:53.787Z,14.24
2018-09-14T04:47:22.008Z,14.52
2018-09-14T04:49:50.482Z,14.45
2018-09-14T04:52:18.676Z,14.44
2018-09-14T04:54:46.946Z,14.57
2018-09-14T04:57:15.217Z,14.31
2018-09-14T04:59:43.386Z,14.25
2018-09-14T05:02:11.621Z,14.31
2018-09-14T05:04:39.865Z,14.38
2018-09-14T05:07:08.177Z,14.43
2018-09-14T05:09:36.409Z,14.49
2018-09-14T05:12:05.056Z,14.50
2018-09-14T05:14:33.263Z,14.47
2018-09-14T05:17:01.496Z,14.49
2018-09-14T05:19:29.767Z,14.57
2018-09-14T05:21:57.937Z,14.35
2018-09-14T05:24:26.178Z,14.34
2018-09-14T05:26:54.402Z,14.47
2018-09-14T05:29:22.702Z,14.54
2018-09-14T05:31:51.256Z,14.55
2018-09-14T05:34:19.479Z,14.46
2018-09-14T05:36:47.704Z,14.48
2018-09-14T05:39:15.914Z,14.56
2018-09-14T05:41:44.143Z,14.47
2018-09-14T05:44:12.366Z,14.46
2018-09-14T05:46:40.621Z,14.70
2018-09-14T05:49:08.838Z,14.62
2018-09-14T05:51:37.046Z,14.63
2018-09-14T05:54:05.289Z,14.65
2018-09-14T05:56:33.501Z,14.71
2018-09-14T05:59:01.767Z,14.80
2018-09-14T06:01:30.001Z,14.28
2018-09-14T06:03:58.234Z,14.35
2018-09-14T06:06:26.460Z,14.37
2018-09-14T06:08:54.670Z,14.50
2018-09-14T06:11:22.922Z,14.52
2018-09-14T06:13:51.184Z,14.75
2018-09-14T06:16:19.405Z,14.99
2018-09-14T06:18:47.807Z,15.07
2018-09-14T06:21:16.009Z,15.18
2018-09-14T06:23:44.245Z,15.12
2018-09-14T06:26:12.459Z,14.94
2018-09-14T06:28:40.677Z,15.09
2018-09-14T06:31:08.893Z,15.12
2018-09-14T06:33:37.120Z,14.99
2018-09-14T06:36:05.352Z,14.87
2018-09-14T06:38:33.566Z,14.76
2018-09-14T06:41:01.785Z,14.94
2018-09-14T06:43:30.038Z,14.68
2018-09-14T06:45:58.269Z,15.10
2018-09-14T06:48:26.473Z,14.78
2018-09-14T06:50:54.695Z,14.89
2018-09-14T06:53:22.947Z,14.35
2018-09-14T06:55:51.151Z,14.89
2018-09-14T06:58:19.386Z,15.06
2018-09-14T07:00:47.600Z,14.93
2018-09-14T07:03:15.824Z,14.87
2018-09-14T07:05:44.051Z,14.98
2018-09-14T07:08:12.275Z,15.21
2018-09-14T07:10:40.480Z,15.19
2018-09-14T07:13:08.766Z,15.20
2018-09-14T07:15:37.727Z,15.46
2018-09-14T07:18:05.973Z,15.66
2018-09-14T07:20:34.204Z,15.73
2018-09-14T07:23:02.421Z,15.71
2018-09-14T07:25:30.672Z,15.63
2018-09-14T07:27:58.873Z,15.79
2018-09-14T07:30:27.077Z,15.84
2018-09-14T07:32:55.289Z,16.10
2018-09-14T07:35:23.513Z,15.89
2018-09-14T07:37:51.755Z,16.03
2018-09-14T07:40:20.000Z,15.74
2018-09-14T07:42:48.241Z,15.96
2018-09-14T07:45:16.524Z,16.10
2018-09-14T07:47:44.746Z,15.95
2018-09-14T07:50:12.966Z,15.83
2018-09-14T07:52:41.185Z,15.85
2018-09-14T07:55:09.403Z,15.95
2018-09-14T07:57:37.628Z,15.97
2018-09-14T08:00:05.971Z,15.95
2018-09-14T08:02:34.177Z,16.17
2018-09-14T08:05:02.406Z,16.10
2018-09-14T08:07:30.728Z,16.31
2018-09-14T08:09:58.919Z,16.33
2018-09-14T08:12:27.131Z,16.43
2018-09-14T08:14:55.350Z,16.42
2018-09-14T08:17:23.597Z,18.55
2018-09-14T08:19:51.805Z,19.18
2018-09-14T08:22:20.021Z,18.43
2018-09-14T08:24:48.237Z,19.47
2018-09-14T08:27:16.582Z,19.79
2018-09-14T08:29:44.696Z,20.26
2018-09-14T08:32:12.982Z,20.44
2018-09-14T08:34:41.158Z,20.49
2018-09-14T08:37:09.374Z,20.83
2018-09-14T08:39:37.590Z,20.73
2018-09-14T08:42:05.990Z,20.56
2018-09-14T08:44:34.222Z,21.02
2018-09-14T08:47:02.428Z,20.80
2018-09-14T08:49:30.668Z,21.33
2018-09-14T08:51:58.894Z,21.23
2018-09-14T08:54:27.108Z,20.79
2018-09-14T08:56:55.337Z,21.94
2018-09-14T08:59:23.562Z,20.69
2018-09-14T09:01:51.820Z,20.37
2018-09-14T09:04:20.038Z,20.71
2018-09-14T09:06:48.282Z,20.91
2018-09-14T09:09:16.555Z,20.84
2018-09-14T09:11:44.741Z,20.88
2018-09-14T09:14:12.958Z,20.16
2018-09-14T09:16:41.184Z,20.50
2018-09-14T09:19:09.761Z,20.19
2018-09-14T09:21:37.976Z,20.30
2018-09-14T09:24:06.212Z,20.52
2018-09-14T09:26:34.434Z,20.63
2018-09-14T09:29:02.652Z,20.86
2018-09-14T09:31:30.878Z,21.02
2018-09-14T09:33:59.099Z,20.71
2018-09-14T09:36:27.328Z,19.69
2018-09-14T09:38:55.744Z,20.65
2018-09-14T09:41:23.993Z,20.40
2018-09-14T09:43:52.329Z,20.23
2018-09-14T09:46:20.503Z,20.17
2018-09-14T09:48:49.078Z,20.16
2018-09-14T09:51:17.436Z,19.98
2018-09-14T09:53:45.612Z,20.16
2018-09-14T09:56:13.811Z,20.10
2018-09-14T09:58:42.065Z,19.95
2018-09-14T10:01:15.575Z,19.91
2018-09-14T10:03:48.936Z,19.75
2018-09-14T10:06:22.354Z,19.87
2018-09-14T10:08:50.575Z,19.77
2018-09-14T10:11:18.801Z,20.06
2018-09-14T10:13:47.346Z,20.03
2018-09-14T10:16:15.562Z,20.01
2018-09-14T10:18:43.837Z,20.07
2018-09-14T10:21:12.167Z,20.11
2018-09-14T10:23:40.278Z,20.02
2018-09-14T10:26:08.534Z,19.98
2018-09-14T10:28:36.843Z,20.15
2018-09-14T10:31:05.099Z,19.98
2018-09-14T10:33:34.334Z,20.19
2018-09-14T10:36:02.776Z,19.96
2018-09-14T10:38:31.019Z,20.02
2018-09-14T10:41:03.015Z,19.84
2018-09-14T10:43:31.873Z,19.92
2018-09-14T10:46:00.103Z,20.01
2018-09-14T10:48:28.358Z,19.99
2018-09-14T10:50:56.668Z,19.77
2018-09-14T10:53:24.930Z,19.94
2018-09-14T10:55:54.153Z,20.26
2018-09-14T10:58:22.370Z,20.26
2018-09-14T11:00:50.632Z,19.85
2018-09-14T11:03:18.912Z,20.11
2018-09-14T11:05:47.165Z,19.81
2018-09-14T11:08:15.402Z,20.43
2018-09-14T11:10:43.699Z,20.52
2018-09-14T11:13:11.908Z,20.25
2018-09-14T11:15:40.149Z,20.40
2018-09-14T11:18:08.386Z,20.16
2018-09-14T11:20:36.642Z,20.48
2018-09-14T11:23:04.843Z,20.35
2018-09-14T11:25:33.094Z,20.45
2018-09-14T11:28:01.363Z,20.27
2018-09-14T11:30:29.494Z,20.29
2018-09-14T11:32:57.772Z,20.31
2018-09-14T11:35:25.977Z,20.55
2018-09-14T11:37:54.279Z,20.50
2018-09-14T11:40:22.418Z,20.39
2018-09-14T11:42:50.734Z,20.63
2018-09-14T11:45:19.129Z,20.56
2018-09-14T11:47:47.302Z,20.33
2018-09-14T11:50:16.662Z,20.29
2018-09-14T11:52:44.894Z,20.33
2018-09-14T11:55:15.133Z,20.27
2018-09-14T11:57:43.447Z,20.19
2018-09-14T12:00:12.772Z,20.52
2018-09-14T12:02:41.040Z,20.81
2018-09-14T12:05:09.332Z,20.94
2018-09-14T12:07:38.173Z,20.84
2018-09-14T12:10:07.078Z,20.91
2018-09-14T12:12:37.353Z,20.56
2018-09-14T12:15:05.624Z,20.59
2018-09-14T12:17:33.835Z,20.79
2018-09-14T12:20:02.064Z,20.49
2018-09-14T12:22:30.301Z,21.20
2018-09-14T12:24:58.509Z,21.01
2018-09-14T12:27:26.770Z,21.10
2018-09-14T12:29:54.981Z,21.11
2018-09-14T12:32:23.225Z,21.15
2018-09-14T12:34:51.445Z,21.39
2018-09-14T12:37:19.676Z,21.25
2018-09-14T12:39:47.875Z,21.44
2018-09-14T12:42:16.103Z,21.21
2018-09-14T12:44:44.381Z,20.83
2018-09-14T12:47:12.681Z,21.09
2018-09-14T12:49:40.901Z,21.23
2018-09-14T12:52:09.109Z,21.16
2018-09-14T12:54:37.427Z,21.39
2018-09-14T12:57:05.664Z,21.81
2018-09-14T12:59:33.878Z,22.05
2018-09-14T13:02:02.107Z,21.60
2018-09-14T13:04:30.341Z,21.91
2018-09-14T13:06:58.548Z,21.90
2018-09-14T13:09:26.758Z,21.80
2018-09-14T13:11:55.062Z,21.81
2018-09-14T13:14:24.173Z,21.79
2018-09-14T13:16:52.613Z,22.18
2018-09-14T13:19:21.438Z,22.26
2018-09-14T13:21:49.663Z,22.01
2018-09-14T13:24:17.922Z,22.12
2018-09-14T13:26:46.105Z,22.07
2018-09-14T13:29:14.306Z,22.06
2018-09-14T13:31:42.538Z,21.66
2018-09-14T13:34:10.798Z,21.75
2018-09-14T13:36:39.094Z,21.44
2018-09-14T13:39:08.460Z,21.84
2018-09-14T13:41:36.724Z,21.80
2018-09-14T13:44:06.253Z,21.88
2018-09-14T13:46:34.492Z,22.21
2018-09-14T13:49:02.781Z,22.45
2018-09-14T13:51:31.056Z,22.57
2018-09-14T13:53:59.277Z,22.03
2018-09-14T13:56:27.584Z,21.98
2018-09-14T13:58:55.814Z,22.02
2018-09-14T14:01:24.107Z,21.77
2018-09-14T14:03:52.254Z,21.49
2018-09-14T14:06:20.478Z,21.49
2018-09-14T14:08:48.820Z,21.45
2018-09-14T14:11:17.169Z,21.45
2018-09-14T14:13:45.407Z,21.44
2018-09-14T14:16:13.626Z,21.55
2018-09-14T14:18:41.895Z,21.75
2018-09-14T14:21:10.134Z,21.88
2018-09-14T14:23:38.314Z,21.72
2018-09-14T14:26:06.571Z,21.47
2018-09-14T14:28:34.797Z,21.71
2018-09-14T14:31:03.094Z,21.69
2018-09-14T14:33:31.309Z,21.58
2018-09-14T14:35:59.552Z,21.69
2018-09-14T14:38:27.763Z,21.75
2018-09-14T14:40:55.969Z,21.72
2018-09-14T14:43:24.190Z,21.63
2018-09-14T14:45:52.481Z,21.75
2018-09-14T14:48:20.705Z,21.82
2018-09-14T14:50:48.918Z,21.77
2018-09-14T14:53:17.138Z,21.93
2018-09-14T14:55:45.378Z,21.79
2018-09-14T14:58:13.595Z,21.94
2018-09-14T15:00:41.797Z,21.52
2018-09-14T15:03:10.016Z,21.52
2018-09-14T15:05:38.230Z,21.40
2018-09-14T15:08:06.490Z,21.39
2018-09-14T15:10:34.760Z,21.75
2018-09-14T15:13:02.923Z,21.93
2018-09-14T15:15:31.121Z,21.85
2018-09-14T15:17:59.342Z,21.84
2018-09-14T15:20:27.545Z,21.79
2018-09-14T15:22:55.757Z,21.76
2018-09-14T15:25:23.977Z,21.58
2018-09-14T15:27:52.194Z,21.66
2018-09-14T15:30:20.438Z,21.66
2018-09-14T15:32:48.652Z,21.59
2018-09-14T15:35:16.906Z,21.68
2018-09-14T15:37:45.134Z,21.53
2018-09-14T15:40:13.382Z,21.51
2018-09-14T15:42:41.614Z,21.52
2018-09-14T15:45:09.870Z,21.40
2018-09-14T15:47:38.105Z,21.36
2018-09-14T15:50:06.378Z,21.53
2018-09-14T15:52:34.589Z,21.60
2018-09-14T15:55:02.842Z,21.67
2018-09-14T15:57:31.056Z,21.58
2018-09-14T15:59:59.293Z,21.59
2018-09-14T16:02:28.549Z,21.61
2018-09-14T16:04:56.765Z,21.58
2018-09-14T16:07:24.966Z,21.62
2018-09-14T16:09:53.194Z,21.75
2018-09-14T16:12:21.401Z,21.77
2018-09-14T16:14:49.614Z,21.69
2018-09-14T16:17:17.848Z,21.40
2018-09-14T16:19:46.066Z,21.32
2018-09-14T16:22:14.285Z,21.44
2018-09-14T16:24:42.490Z,21.40
2018-09-14T16:27:10.706Z,21.31
2018-09-14T16:29:38.945Z,21.11
2018-09-14T16:32:07.209Z,21.17
2018-09-14T16:34:35.425Z,21.06
2018-09-14T16:37:03.673Z,20.91
2018-09-14T16:39:31.898Z,20.97
2018-09-14T16:42:00.116Z,20.88
2018-09-14T16:44:28.351Z,20.87
2018-09-14T16:46:56.552Z,20.88
2018-09-14T16:49:24.814Z,20.81
2018-09-14T16:51:53.043Z,20.70
2018-09-14T16:54:21.262Z,20.59
2018-09-14T16:56:49.506Z,20.48
2018-09-14T16:59:17.729Z,20.51
2018-09-14T17:01:45.958Z,20.55
2018-09-14T17:04:14.185Z,20.52
2018-09-14T17:06:42.430Z,20.54
2018-09-14T17:09:10.709Z,20.51
2018-09-14T17:11:38.968Z,20.41
2018-09-14T17:14:07.981Z,20.31
2018-09-14T17:16:36.285Z,20.35
2018-09-14T17:19:04.527Z,20.30
2018-09-14T17:21:32.802Z,20.41
2018-09-14T17:24:00.963Z,20.32
2018-09-14T17:26:29.192Z,20.25
2018-09-14T17:28:57.403Z,20.38
2018-09-14T17:31:25.670Z,20.27
2018-09-14T17:33:53.890Z,20.31
2018-09-14T17:36:22.118Z,20.29
2018-09-14T17:38:50.344Z,20.12
2018-09-14T17:41:18.577Z,20.10
2018-09-14T17:43:47.133Z,20.06
2018-09-14T17:46:15.366Z,20.05
2018-09-14T17:48:43.590Z,20.11
2018-09-14T17:51:11.850Z,20.07
2018-09-14T17:53:40.057Z,19.98
2018-09-14T17:56:08.448Z,20.03
2018-09-14T17:58:36.691Z,20.10
2018-09-14T18:01:04.973Z,20.14
2018-09-14T18:03:33.268Z,20.17
2018-09-14T18:06:01.561Z,20.18
2018-09-14T18:08:29.805Z,20.03
2018-09-14T18:10:58.038Z,20.07
2018-09-14T18:13:27.086Z,20.14
2018-09-14T18:15:55.919Z,20.11
2018-09-14T18:18:26.197Z,20.01
2018-09-14T18:20:54.497Z,19.98
2018-09-14T18:23:22.733Z,20.03
2018-09-14T18:25:51.062Z,20.01
2018-09-14T18:28:19.289Z,20.04
2018-09-14T18:30:47.548Z,20.10
2018-09-14T18:33:15.801Z,19.96
2018-09-14T18:35:44.091Z,19.89
2018-09-14T18:38:12.236Z,19.82
2018-09-14T18:40:40.464Z,19.84
2018-09-14T18:43:08.769Z,19.77
2018-09-14T18:45:37.025Z,19.78
2018-09-14T18:48:05.331Z,19.77
2018-09-14T18:50:33.562Z,19.80
2018-09-14T18:53:01.806Z,19.76
2018-09-14T18:55:30.027Z,19.76
2018-09-14T18:57:58.273Z,19.61
2018-09-14T19:00:27.249Z,19.42
2018-09-14T19:02:55.609Z,19.41
2018-09-14T19:05:23.908Z,19.42
2018-09-14T19:07:52.142Z,19.43
2018-09-14T19:10:20.381Z,19.43
2018-09-14T19:12:48.625Z,19.40
2018-09-14T19:15:16.884Z,19.39
2018-09-14T19:17:45.155Z,19.40
2018-09-14T19:20:13.385Z,19.36
2018-09-14T19:22:41.626Z,19.22
2018-09-14T19:25:09.873Z,19.15
2018-09-14T19:27:38.103Z,19.17
2018-09-14T19:30:06.323Z,19.16
2018-09-14T19:32:34.555Z,19.23
2018-09-14T19:35:02.837Z,19.12
2018-09-14T19:37:31.047Z,19.18
2018-09-14T19:39:59.317Z,19.09
2018-09-14T19:42:27.551Z,19.11
2018-09-14T19:44:55.809Z,19.12
2018-09-14T19:47:24.122Z,19.10
2018-09-14T19:49:52.346Z,19.08
2018-09-14T19:52:20.573Z,19.06
2018-09-14T19:54:48.802Z,18.87
2018-09-14T19:57:17.041Z,18.97
2018-09-14T19:59:45.229Z,18.98
2018-09-14T20:02:13.466Z,18.86
2018-09-14T20:04:41.674Z,18.79
2018-09-14T20:07:09.917Z,18.73
2018-09-14T20:09:39.232Z,18.81
2018-09-14T20:12:07.481Z,18.80
2018-09-14T20:14:35.709Z,18.88
2018-09-14T20:17:03.936Z,18.76
2018-09-14T20:19:33.035Z,18.84
2018-09-14T20:22:01.263Z,18.84
2018-09-14T20:24:29.497Z,18.76
2018-09-14T20:26:57.719Z,18.80
2018-09-14T20:29:25.970Z,18.74
2018-09-14T20:31:54.185Z,18.55
2018-09-14T20:34:22.397Z,18.58
2018-09-14T20:36:53.962Z,18.53
2018-09-14T20:39:22.181Z,18.43
2018-09-14T20:41:50.417Z,18.48
2018-09-14T20:44:18.677Z,18.32
2018-09-14T20:46:47.056Z,18.30
2018-09-14T20:49:15.285Z,18.23
2018-09-14T20:51:45.598Z,18.31
2018-09-14T20:54:13.771Z,18.07
2018-09-14T20:56:41.998Z,18.15
2018-09-14T20:59:11.210Z,17.97
2018-09-14T21:01:39.421Z,17.87
2018-09-14T21:04:07.710Z,18.04
2018-09-14T21:06:35.990Z,17.88
2018-09-14T21:09:06.170Z,17.81
2018-09-14T21:11:34.760Z,17.38
2018-09-14T21:14:05.311Z,17.38
2018-09-14T21:16:33.806Z,17.51
2018-09-14T21:19:02.129Z,17.47
2018-09-14T21:21:30.370Z,17.43
2018-09-14T21:23:58.645Z,17.49
2018-09-14T21:26:26.867Z,17.48
2018-09-14T21:28:56.225Z,17.54
2018-09-14T21:31:24.470Z,17.58
2018-09-14T21:33:52.758Z,17.59
2018-09-14T21:36:21.010Z,17.55
2018-09-14T21:38:49.223Z,17.58
2018-09-14T21:41:17.562Z,17.53
2018-09-14T21:43:45.819Z,17.44
2018-09-14T21:46:14.032Z,17.63
2018-09-14T21:48:42.237Z,17.56
2018-09-14T21:51:10.464Z,17.43
2018-09-14T21:53:38.729Z,17.58
2018-09-14T21:56:06.926Z,17.28
2018-09-14T21:58:35.146Z,17.44
2018-09-14T22:01:10.563Z,17.66
2018-09-14T22:03:38.910Z,17.64
2018-09-14T22:06:07.365Z,17.70
2018-09-14T22:08:35.578Z,17.63
2018-09-14T22:11:03.814Z,17.49
2018-09-14T22:13:32.033Z,17.50
2018-09-14T22:16:00.256Z,17.63
2018-09-14T22:18:28.489Z,17.49
2018-09-14T22:20:56.706Z,17.32
2018-09-14T22:23:24.950Z,17.43
2018-09-14T22:25:53.157Z,17.40
2018-09-14T22:28:21.386Z,17.57
2018-09-14T22:30:49.631Z,17.54
2018-09-14T22:33:17.857Z,17.59
2018-09-14T22:35:46.146Z,17.51
2018-09-14T22:38:14.397Z,17.53
2018-09-14T22:40:42.619Z,17.60
2018-09-14T22:43:10.829Z,17.70
2018-09-14T22:45:39.065Z,17.53
2018-09-14T22:48:08.417Z,17.55
2018-09-14T22:50:36.981Z,17.60
2018-09-14T22:53:05.185Z,17.47
2018-09-14T22:55:33.414Z,17.54
2018-09-14T22:58:01.630Z,17.53
2018-09-14T23:00:35.106Z,17.60
2018-09-14T23:03:04.442Z,17.66
2018-09-14T23:05:33.894Z,17.54
2018-09-14T23:08:02.108Z,17.60
2018-09-14T23:10:30.446Z,17.63
2018-09-14T23:13:00.437Z,17.66
2018-09-14T23:15:28.641Z,17.61
2018-09-14T23:17:57.221Z,17.58
2018-09-14T23:20:28.885Z,17.69
2018-09-14T23:57:14.638Z,17.31
2018-09-14T23:59:42.858Z,17.31
